createdAt,value
2019-05-13T00:00:56.550Z,8.61
2019-05-13T00:01:56.764Z,8.58
2019-05-13T00:02:56.535Z,8.60
2019-05-13T00:03:56.537Z,8.58
2019-05-13T00:04:56.537Z,8.60
2019-05-13T00:05:56.522Z,8.61
2019-05-13T00:06:57.701Z,8.55
2019-05-13T00:07:56.508Z,8.55
2019-05-13T00:08:56.515Z,8.58
2019-05-13T00:09:56.506Z,8.46
2019-05-13T00:10:56.495Z,8.55
2019-05-13T00:11:56.487Z,8.60
2019-05-13T00:12:56.497Z,8.53
2019-05-13T00:13:56.474Z,8.60
2019-05-13T00:14:56.674Z,8.51
2019-05-13T00:15:56.462Z,8.52
2019-05-13T00:16:56.454Z,8.56
2019-05-13T00:17:56.442Z,8.48
2019-05-13T00:18:56.442Z,8.49
2019-05-13T00:19:56.454Z,8.55
2019-05-13T00:20:56.425Z,8.52
2019-05-13T00:21:56.419Z,8.60
2019-05-13T00:22:56.414Z,8.46
2019-05-13T00:23:56.419Z,8.44
2019-05-13T00:24:56.413Z,8.48
2019-05-13T00:25:56.389Z,8.42
2019-05-13T00:26:56.393Z,8.42
2019-05-13T00:27:56.377Z,8.48
2019-05-13T00:28:56.380Z,8.34
2019-05-13T00:29:56.364Z,8.36
2019-05-13T00:30:56.364Z,8.48
2019-05-13T00:31:56.361Z,8.44
2019-05-13T00:32:56.365Z,8.36
2019-05-13T00:33:56.356Z,8.36
2019-05-13T00:34:56.339Z,8.31
2019-05-13T00:35:56.331Z,8.24
2019-05-13T00:37:07.786Z,8.28
2019-05-13T00:37:56.337Z,8.24
2019-05-13T00:38:56.326Z,8.36
2019-05-13T00:39:56.319Z,8.26
2019-05-13T00:40:56.313Z,8.26
2019-05-13T00:41:56.297Z,8.26
2019-05-13T00:42:56.313Z,8.13
2019-05-13T00:43:56.294Z,8.27
2019-05-13T00:44:56.282Z,8.13
2019-05-13T00:45:56.296Z,8.23
2019-05-13T00:46:56.295Z,8.23
2019-05-13T00:47:56.464Z,8.18
2019-05-13T00:48:56.275Z,8.20
2019-05-13T00:49:56.246Z,8.20
2019-05-13T00:50:56.245Z,8.16
2019-05-13T00:51:56.236Z,8.20
2019-05-13T00:52:56.436Z,8.10
2019-05-13T00:53:56.240Z,8.09
2019-05-13T00:54:56.425Z,8.15
2019-05-13T00:55:56.215Z,8.06
2019-05-13T00:56:56.206Z,8.08
2019-05-13T00:57:56.195Z,8.00
2019-05-13T00:58:56.211Z,8.06
2019-05-13T00:59:56.195Z,7.94
2019-05-13T01:00:56.184Z,7.93
2019-05-13T01:01:56.383Z,7.91
2019-05-13T01:02:56.185Z,7.91
2019-05-13T01:03:56.173Z,7.97
2019-05-13T01:04:56.168Z,7.97
2019-05-13T01:05:56.169Z,7.91
2019-05-13T01:06:56.364Z,7.93
2019-05-13T01:07:56.149Z,7.88
2019-05-13T01:08:56.131Z,7.87
2019-05-13T01:09:56.126Z,7.85
2019-05-13T01:10:56.326Z,7.87
2019-05-13T01:11:56.131Z,7.87
2019-05-13T01:12:56.324Z,7.80
2019-05-13T01:13:56.114Z,7.88
2019-05-13T01:14:56.114Z,7.82
2019-05-13T01:15:56.120Z,7.80
2019-05-13T01:16:56.090Z,7.79
2019-05-13T01:17:56.076Z,7.82
2019-05-13T01:18:56.083Z,7.75
2019-05-13T01:19:56.068Z,7.79
2019-05-13T01:20:56.080Z,7.79
2019-05-13T01:21:56.066Z,7.79
2019-05-13T01:22:56.046Z,7.70
2019-05-13T01:23:56.047Z,7.76
2019-05-13T01:24:56.242Z,7.77
2019-05-13T01:25:56.022Z,7.67
2019-05-13T01:26:56.040Z,7.67
2019-05-13T01:27:56.023Z,7.80
2019-05-13T01:28:56.033Z,7.79
2019-05-13T01:29:56.219Z,7.63
2019-05-13T01:30:56.200Z,7.79
2019-05-13T01:31:56.203Z,7.66
2019-05-13T01:32:55.990Z,7.67
2019-05-13T01:33:55.984Z,7.67
2019-05-13T01:34:55.968Z,7.63
2019-05-13T01:35:55.971Z,7.61
2019-05-13T01:36:55.983Z,7.75
2019-05-13T01:37:56.168Z,7.61
2019-05-13T01:38:55.966Z,7.75
2019-05-13T01:39:55.948Z,7.77
2019-05-13T01:40:55.935Z,7.60
2019-05-13T01:41:56.144Z,7.75
2019-05-13T01:42:55.920Z,7.66
2019-05-13T01:43:55.932Z,7.67
2019-05-13T01:44:55.918Z,7.63
2019-05-13T01:45:56.111Z,7.67
2019-05-13T01:46:56.116Z,7.60
2019-05-13T01:47:55.885Z,7.50
2019-05-13T01:48:55.883Z,7.50
2019-05-13T01:49:55.890Z,7.50
2019-05-13T01:50:55.872Z,7.42
2019-05-13T01:51:55.877Z,7.35
2019-05-13T01:52:55.872Z,7.23
2019-05-13T01:53:55.858Z,7.20
2019-05-13T01:54:55.847Z,7.20
2019-05-13T01:55:55.851Z,7.21
2019-05-13T01:56:55.846Z,7.17
2019-05-13T01:57:55.826Z,7.14
2019-05-13T01:58:55.832Z,7.05
2019-05-13T01:59:55.815Z,6.99
2019-05-13T02:00:55.816Z,7.00
2019-05-13T02:01:55.808Z,6.97
2019-05-13T02:02:55.818Z,6.95
2019-05-13T02:03:55.799Z,6.88
2019-05-13T02:04:55.799Z,6.79
2019-05-13T02:05:55.996Z,6.78
2019-05-13T02:06:55.786Z,6.77
2019-05-13T02:08:00.400Z,6.64
2019-05-13T02:08:55.767Z,6.64
2019-05-13T02:09:55.774Z,6.56
2019-05-13T02:10:55.767Z,6.48
2019-05-13T02:11:55.763Z,6.41
2019-05-13T02:12:55.752Z,6.45
2019-05-13T02:14:55.730Z,6.26
2019-05-13T02:15:55.828Z,6.14
2019-05-13T02:16:55.724Z,6.17
2019-05-13T02:17:55.724Z,6.02
2019-05-13T02:18:55.914Z,6.04
2019-05-13T02:19:55.712Z,6.01
2019-05-13T02:20:56.140Z,6.02
2019-05-13T02:21:55.715Z,6.01
2019-05-13T02:22:55.904Z,6.04
2019-05-13T02:23:55.880Z,6.05
2019-05-13T02:24:55.880Z,6.08
2019-05-13T02:25:55.667Z,5.93
2019-05-13T02:26:55.660Z,5.94
2019-05-13T02:27:55.870Z,5.87
2019-05-13T02:28:55.840Z,5.86
2019-05-13T02:29:55.842Z,5.79
2019-05-13T02:30:56.935Z,5.75
2019-05-13T02:31:56.414Z,5.65
2019-05-13T02:32:55.617Z,5.65
2019-05-13T02:33:55.612Z,5.65
2019-05-13T02:34:55.612Z,5.57
2019-05-13T02:35:55.617Z,5.61
2019-05-13T02:36:55.803Z,5.61
2019-05-13T02:38:16.786Z,5.62
2019-05-13T02:38:55.580Z,5.54
2019-05-13T02:39:55.778Z,5.50
2019-05-13T02:40:55.590Z,5.50
2019-05-13T02:41:55.587Z,5.44
2019-05-13T02:42:55.556Z,5.39
2019-05-13T02:43:55.571Z,5.47
2019-05-13T02:44:55.557Z,5.36
2019-05-13T02:45:55.557Z,5.35
2019-05-13T02:46:55.538Z,5.33
2019-05-13T02:47:55.525Z,5.33
2019-05-13T02:48:55.535Z,5.30
2019-05-13T02:49:55.503Z,5.23
2019-05-13T02:50:55.514Z,5.28
2019-05-13T02:51:55.490Z,5.15
2019-05-13T02:52:55.502Z,5.18
2019-05-13T02:53:55.512Z,5.20
2019-05-13T02:54:55.490Z,5.12
2019-05-13T02:55:55.473Z,5.12
2019-05-13T02:56:55.467Z,5.10
2019-05-13T02:57:55.457Z,5.04
2019-05-13T02:58:55.661Z,4.94
2019-05-13T02:59:55.444Z,4.99
2019-05-13T03:00:55.637Z,5.04
2019-05-13T03:01:55.632Z,4.97
2019-05-13T03:02:55.630Z,4.97
2019-05-13T03:03:55.411Z,4.89
2019-05-13T03:04:55.416Z,4.90
2019-05-13T03:05:55.404Z,4.92
2019-05-13T03:06:55.393Z,4.92
2019-05-13T03:07:55.388Z,4.89
2019-05-13T03:08:55.386Z,4.86
2019-05-13T03:09:55.382Z,4.96
2019-05-13T03:10:55.405Z,4.86
2019-05-13T03:11:55.367Z,4.74
2019-05-13T03:12:55.370Z,4.80
2019-05-13T03:13:55.350Z,4.86
2019-05-13T03:14:55.354Z,4.70
2019-05-13T03:15:55.329Z,4.75
2019-05-13T03:16:55.349Z,4.74
2019-05-13T03:17:55.322Z,4.74
2019-05-13T03:18:55.318Z,4.58
2019-05-13T03:19:55.317Z,4.60
2019-05-13T03:20:55.330Z,4.60
2019-05-13T03:21:55.304Z,4.59
2019-05-13T03:22:55.287Z,4.60
2019-05-13T03:23:55.281Z,4.49
2019-05-13T03:24:55.283Z,4.45
2019-05-13T03:25:55.273Z,4.40
2019-05-13T03:26:55.263Z,4.38
2019-05-13T03:27:55.504Z,4.38
2019-05-13T03:28:55.247Z,4.31
2019-05-13T03:29:55.258Z,4.24
2019-05-13T03:30:56.733Z,4.24
2019-05-13T03:31:56.537Z,4.13
2019-05-13T03:33:02.093Z,4.13
2019-05-13T03:33:56.544Z,4.19
2019-05-13T03:34:56.785Z,4.12
2019-05-13T03:35:56.467Z,4.16
2019-05-13T03:36:57.571Z,4.17
2019-05-13T03:37:55.396Z,4.24
2019-05-13T03:39:04.581Z,4.23
2019-05-13T03:39:55.178Z,4.26
2019-05-13T03:40:55.179Z,4.26
2019-05-13T03:41:55.156Z,4.22
2019-05-13T03:42:55.166Z,4.41
2019-05-13T03:43:55.149Z,4.38
2019-05-13T03:44:55.350Z,4.38
2019-05-13T03:45:55.329Z,4.42
2019-05-13T03:46:55.140Z,4.40
2019-05-13T03:47:55.120Z,4.35
2019-05-13T03:48:55.104Z,4.44
2019-05-13T03:49:55.096Z,4.40
2019-05-13T03:50:55.103Z,4.34
2019-05-13T03:51:55.172Z,4.30
2019-05-13T03:52:55.090Z,4.28
2019-05-13T03:53:55.110Z,4.14
2019-05-13T03:54:55.070Z,4.04
2019-05-13T03:55:55.060Z,4.05
2019-05-13T03:56:55.057Z,3.98
2019-05-13T03:57:55.059Z,4.02
2019-05-13T03:58:55.044Z,3.87
2019-05-13T03:59:55.044Z,3.91
2019-05-13T04:00:55.051Z,3.83
2019-05-13T04:01:55.039Z,3.84
2019-05-13T04:02:55.018Z,3.78
2019-05-13T04:03:55.005Z,3.78
2019-05-13T04:04:58.880Z,3.76
2019-05-13T04:05:55.206Z,3.80
2019-05-13T04:06:55.195Z,3.83
2019-05-13T04:07:54.987Z,3.83
2019-05-13T04:09:15.837Z,3.80
2019-05-13T04:09:54.969Z,3.87
2019-05-13T04:10:54.977Z,3.78
2019-05-13T04:11:54.944Z,3.84
2019-05-13T04:12:54.940Z,3.69
2019-05-13T04:13:54.972Z,3.81
2019-05-13T04:14:54.923Z,3.80
2019-05-13T04:15:54.916Z,3.76
2019-05-13T04:16:54.967Z,3.78
2019-05-13T04:17:54.923Z,3.87
2019-05-13T04:18:55.096Z,3.81
2019-05-13T04:19:54.885Z,3.83
2019-05-13T04:20:55.088Z,3.86
2019-05-13T04:21:55.082Z,3.88
2019-05-13T04:22:54.865Z,3.84
2019-05-13T04:23:54.856Z,3.91
2019-05-13T04:24:54.878Z,3.94
2019-05-13T04:25:55.050Z,3.86
2019-05-13T04:26:54.843Z,3.81
2019-05-13T04:27:55.030Z,3.91
2019-05-13T04:28:54.825Z,3.94
2019-05-13T04:29:55.026Z,4.05
2019-05-13T04:30:54.820Z,3.98
2019-05-13T04:31:54.819Z,3.96
2019-05-13T04:32:54.806Z,4.02
2019-05-13T04:33:54.808Z,4.14
2019-05-13T04:34:54.792Z,4.12
2019-05-13T04:35:54.772Z,4.10
2019-05-13T04:36:54.763Z,4.23
2019-05-13T04:37:54.771Z,4.23
2019-05-13T04:38:54.763Z,4.32
2019-05-13T04:39:56.341Z,4.38
2019-05-13T04:40:54.740Z,4.37
2019-05-13T04:41:54.741Z,4.37
2019-05-13T04:42:54.725Z,4.42
2019-05-13T04:43:54.918Z,4.41
2019-05-13T04:44:54.707Z,4.49
2019-05-13T04:45:54.697Z,4.59
2019-05-13T04:46:54.891Z,4.59
2019-05-13T04:47:54.683Z,4.58
2019-05-13T04:48:54.897Z,4.71
2019-05-13T04:49:54.675Z,4.73
2019-05-13T04:50:54.676Z,4.90
2019-05-13T04:51:54.873Z,4.86
2019-05-13T04:52:54.650Z,4.93
2019-05-13T04:53:57.369Z,4.93
2019-05-13T04:54:54.632Z,4.94
2019-05-13T04:55:54.644Z,5.05
2019-05-13T04:56:54.619Z,5.00
2019-05-13T04:57:54.668Z,5.11
2019-05-13T04:58:54.821Z,5.14
2019-05-13T04:59:55.267Z,5.18
2019-05-13T05:01:02.144Z,5.21
2019-05-13T05:01:59.462Z,5.25
2019-05-13T05:02:55.428Z,5.33
2019-05-13T05:03:54.579Z,5.39
2019-05-13T05:04:54.575Z,5.32
2019-05-13T05:05:54.757Z,5.32
2019-05-13T05:06:54.775Z,5.29
2019-05-13T05:07:54.543Z,5.43
2019-05-13T05:08:54.734Z,5.50
2019-05-13T05:10:16.699Z,5.43
2019-05-13T05:10:54.520Z,5.62
2019-05-13T05:11:54.513Z,5.54
2019-05-13T05:12:54.516Z,5.53
2019-05-13T05:13:56.738Z,5.53
2019-05-13T05:14:54.492Z,5.56
2019-05-13T05:15:54.494Z,5.61
2019-05-13T05:16:54.480Z,5.72
2019-05-13T05:17:54.487Z,5.69
2019-05-13T05:18:54.672Z,5.65
2019-05-13T05:19:54.460Z,5.80
2019-05-13T05:20:54.449Z,5.87
2019-05-13T05:21:55.411Z,5.87
2019-05-13T05:22:54.444Z,6.02
2019-05-13T05:23:54.434Z,6.08
2019-05-13T05:24:54.631Z,5.99
2019-05-13T05:25:54.446Z,6.02
2019-05-13T05:26:54.421Z,6.07
2019-05-13T05:27:54.402Z,6.20
2019-05-13T05:28:54.405Z,6.17
2019-05-13T05:29:54.387Z,6.20
2019-05-13T05:30:54.391Z,6.19
2019-05-13T05:31:54.383Z,6.22
2019-05-13T05:32:54.385Z,6.27
2019-05-13T05:33:54.369Z,6.28
2019-05-13T05:34:54.571Z,6.22
2019-05-13T05:35:54.344Z,6.24
2019-05-13T05:36:54.349Z,6.31
2019-05-13T05:37:54.347Z,6.38
2019-05-13T05:38:54.339Z,6.48
2019-05-13T05:39:54.333Z,6.51
2019-05-13T05:40:54.316Z,6.57
2019-05-13T05:41:54.517Z,6.56
2019-05-13T05:42:54.312Z,6.70
2019-05-13T05:43:54.302Z,6.77
2019-05-13T05:44:54.300Z,6.89
2019-05-13T05:45:54.298Z,6.84
2019-05-13T05:46:54.484Z,6.84
2019-05-13T05:47:54.477Z,6.95
2019-05-13T05:48:54.278Z,7.05
2019-05-13T05:49:54.262Z,7.10
2019-05-13T05:50:54.256Z,7.10
2019-05-13T05:51:54.251Z,7.13
2019-05-13T05:52:54.448Z,7.18
2019-05-13T05:53:54.226Z,7.23
2019-05-13T05:54:54.228Z,7.24
2019-05-13T05:55:54.987Z,7.38
2019-05-13T05:56:54.216Z,7.33
2019-05-13T05:57:54.213Z,7.42
2019-05-13T05:58:54.204Z,7.51
2019-05-13T05:59:54.193Z,7.56
2019-05-13T06:00:54.205Z,7.51
2019-05-13T06:01:54.187Z,7.70
2019-05-13T06:02:54.177Z,7.58
2019-05-13T06:03:54.167Z,7.79
2019-05-13T06:04:54.169Z,7.67
2019-05-13T06:05:54.148Z,7.73
2019-05-13T06:06:54.157Z,7.79
2019-05-13T06:07:54.139Z,7.85
2019-05-13T06:08:54.142Z,7.93
2019-05-13T06:09:54.142Z,7.93
2019-05-13T06:10:54.123Z,7.91
2019-05-13T06:11:54.111Z,7.97
2019-05-13T06:12:54.102Z,8.06
2019-05-13T06:13:54.695Z,8.06
2019-05-13T06:14:54.296Z,8.01
2019-05-13T06:15:54.080Z,8.12
2019-05-13T06:16:54.287Z,8.10
2019-05-13T06:17:54.088Z,8.08
2019-05-13T06:18:54.077Z,8.20
2019-05-13T06:19:54.273Z,8.27
2019-05-13T06:20:54.059Z,8.24
2019-05-13T06:21:54.055Z,8.23
2019-05-13T06:22:54.245Z,8.34
2019-05-13T06:23:54.234Z,8.26
2019-05-13T06:24:54.042Z,8.30
2019-05-13T06:25:54.037Z,8.51
2019-05-13T06:26:54.023Z,8.42
2019-05-13T06:27:54.008Z,8.49
2019-05-13T06:28:54.001Z,8.60
2019-05-13T06:29:54.202Z,8.58
2019-05-13T06:30:54.204Z,8.60
2019-05-13T06:31:53.980Z,8.56
2019-05-13T06:32:53.976Z,8.70
2019-05-13T06:33:53.974Z,8.66
2019-05-13T06:34:53.968Z,8.69
2019-05-13T06:35:53.977Z,8.66
2019-05-13T06:36:53.977Z,8.63
2019-05-13T06:37:54.155Z,8.71
2019-05-13T06:38:54.154Z,8.70
2019-05-13T06:39:53.932Z,8.73
2019-05-13T06:41:03.386Z,8.70
2019-05-13T06:41:53.937Z,8.82
2019-05-13T06:42:53.932Z,8.84
2019-05-13T06:43:53.914Z,8.95
2019-05-13T06:44:53.914Z,8.91
2019-05-13T06:45:53.907Z,8.88
2019-05-13T06:46:53.918Z,8.88
2019-05-13T06:47:53.891Z,8.91
2019-05-13T06:48:54.086Z,8.97
2019-05-13T06:49:53.904Z,8.97
2019-05-13T06:50:53.887Z,9.06
2019-05-13T06:51:53.867Z,9.00
2019-05-13T06:52:53.918Z,9.10
2019-05-13T06:53:53.863Z,9.14
2019-05-13T06:54:53.850Z,9.11
2019-05-13T06:55:53.872Z,9.19
2019-05-13T06:56:53.836Z,9.25
2019-05-13T06:57:53.827Z,9.32
2019-05-13T06:58:53.823Z,9.31
2019-05-13T06:59:53.818Z,9.32
2019-05-13T07:00:57.661Z,9.47
2019-05-13T07:01:53.804Z,9.44
2019-05-13T07:02:53.806Z,9.54
2019-05-13T07:03:53.795Z,9.59
2019-05-13T07:04:53.790Z,9.58
2019-05-13T07:05:53.790Z,9.65
2019-05-13T07:07:08.892Z,9.66
2019-05-13T07:07:53.796Z,9.59
2019-05-13T07:08:53.781Z,9.59
2019-05-13T07:09:53.767Z,9.56
2019-05-13T07:10:53.765Z,9.61
2019-05-13T07:11:56.802Z,9.69
2019-05-13T07:12:53.747Z,9.73
2019-05-13T07:13:53.747Z,9.74
2019-05-13T07:14:53.739Z,9.87
2019-05-13T07:15:53.734Z,9.95
2019-05-13T07:16:53.731Z,9.99
2019-05-13T07:17:53.733Z,9.95
2019-05-13T07:18:53.726Z,9.95
2019-05-13T07:19:53.711Z,9.95
2019-05-13T07:20:53.703Z,9.95
2019-05-13T07:21:53.712Z,10.04
2019-05-13T07:22:53.692Z,10.12
2019-05-13T07:23:54.879Z,10.17
2019-05-13T07:24:53.680Z,10.12
2019-05-13T07:25:53.696Z,10.12
2019-05-13T07:26:53.681Z,10.25
2019-05-13T07:27:53.681Z,10.25
2019-05-13T07:28:53.671Z,10.15
2019-05-13T07:29:55.716Z,10.20
2019-05-13T07:30:53.664Z,10.25
2019-05-13T07:31:53.653Z,10.09
2019-05-13T07:32:53.653Z,9.99
2019-05-13T07:33:53.641Z,10.01
2019-05-13T07:34:53.698Z,9.92
2019-05-13T07:35:58.221Z,9.95
2019-05-13T07:36:53.629Z,9.95
2019-05-13T07:37:53.629Z,9.92
2019-05-13T07:38:53.625Z,9.89
2019-05-13T07:39:53.603Z,9.77
2019-05-13T07:40:53.616Z,9.74
2019-05-13T07:41:53.591Z,9.80
2019-05-13T07:42:53.595Z,9.84
2019-05-13T07:43:53.784Z,9.92
2019-05-13T07:44:53.594Z,9.84
2019-05-13T07:45:53.595Z,9.86
2019-05-13T07:46:53.577Z,9.95
2019-05-13T07:47:53.570Z,10.13
2019-05-13T07:48:53.569Z,10.17
2019-05-13T07:49:53.791Z,10.25
2019-05-13T07:51:00.251Z,10.40
2019-05-13T07:51:53.542Z,10.48
2019-05-13T07:52:53.548Z,10.53
2019-05-13T07:53:53.742Z,10.60
2019-05-13T07:54:53.745Z,10.67
2019-05-13T07:55:53.532Z,10.82
2019-05-13T07:56:53.515Z,10.79
2019-05-13T07:57:53.512Z,10.82
2019-05-13T07:58:53.723Z,10.90
2019-05-13T07:59:53.505Z,10.87
2019-05-13T08:00:53.512Z,10.81
2019-05-13T08:01:53.505Z,10.82
2019-05-13T08:02:53.509Z,10.96
2019-05-13T08:03:53.476Z,10.97
2019-05-13T08:04:53.488Z,11.10
2019-05-13T08:05:53.469Z,11.07
2019-05-13T08:06:53.465Z,11.22
2019-05-13T08:07:53.463Z,11.47
2019-05-13T08:08:53.451Z,11.68
2019-05-13T08:09:56.792Z,11.88
2019-05-13T08:10:53.446Z,11.91
2019-05-13T08:12:05.149Z,12.15
2019-05-13T08:12:53.656Z,12.20
2019-05-13T08:13:53.436Z,12.06
2019-05-13T08:14:53.679Z,12.02
2019-05-13T08:15:54.693Z,11.81
2019-05-13T08:16:53.431Z,11.80
2019-05-13T08:17:53.633Z,11.86
2019-05-13T08:18:53.623Z,11.99
2019-05-13T08:19:53.414Z,11.95
2019-05-13T08:20:53.414Z,12.06
2019-05-13T08:21:53.405Z,12.09
2019-05-13T08:22:53.396Z,12.10
2019-05-13T08:23:53.381Z,12.22
2019-05-13T08:24:54.463Z,12.15
2019-05-13T08:25:53.372Z,12.22
2019-05-13T08:26:53.634Z,12.43
2019-05-13T08:27:53.367Z,12.39
2019-05-13T08:29:01.389Z,12.04
2019-05-13T08:29:53.564Z,11.62
2019-05-13T08:30:53.360Z,11.40
2019-05-13T08:31:53.350Z,11.23
2019-05-13T08:32:53.354Z,11.23
2019-05-13T08:33:53.355Z,11.26
2019-05-13T08:35:01.542Z,11.37
2019-05-13T08:35:58.388Z,11.59
2019-05-13T08:36:53.348Z,11.81
2019-05-13T08:37:53.341Z,11.86
2019-05-13T08:38:53.332Z,12.00
2019-05-13T08:39:53.324Z,12.21
2019-05-13T08:40:53.321Z,12.43
2019-05-13T08:41:53.309Z,12.47
2019-05-13T08:42:53.304Z,12.62
2019-05-13T08:43:53.310Z,12.70
2019-05-13T08:44:53.287Z,12.72
2019-05-13T08:45:55.656Z,12.82
2019-05-13T08:46:53.285Z,12.97
2019-05-13T08:47:53.286Z,13.00
2019-05-13T08:48:53.285Z,12.82
2019-05-13T08:49:53.284Z,12.62
2019-05-13T08:50:53.266Z,12.47
2019-05-13T08:51:53.270Z,12.50
2019-05-13T08:52:53.261Z,12.37
2019-05-13T08:53:53.258Z,12.37
2019-05-13T08:54:53.250Z,12.25
2019-05-13T08:55:53.242Z,12.24
2019-05-13T08:56:53.252Z,12.13
2019-05-13T08:57:55.269Z,12.06
2019-05-13T08:58:53.439Z,12.13
2019-05-13T08:59:53.224Z,12.21
2019-05-13T09:00:53.399Z,12.36
2019-05-13T09:01:53.225Z,12.65
2019-05-13T09:02:53.222Z,12.62
2019-05-13T09:03:53.218Z,12.83
2019-05-13T09:04:53.212Z,13.05
2019-05-13T09:05:53.206Z,13.38
2019-05-13T09:06:53.189Z,13.50
2019-05-13T09:07:53.209Z,13.83
2019-05-13T09:08:54.417Z,13.96
2019-05-13T09:09:53.193Z,14.10
2019-05-13T09:10:56.538Z,13.99
2019-05-13T09:11:53.174Z,13.79
2019-05-13T09:12:53.164Z,13.93
2019-05-13T09:13:53.174Z,13.77
2019-05-13T09:14:53.153Z,13.79
2019-05-13T09:15:53.149Z,13.44
2019-05-13T09:16:53.145Z,13.41
2019-05-13T09:17:53.358Z,13.41
2019-05-13T09:18:53.357Z,13.42
2019-05-13T09:19:53.341Z,13.52
2019-05-13T09:20:53.151Z,13.75
2019-05-13T09:21:53.124Z,13.85
2019-05-13T09:22:53.121Z,13.93
2019-05-13T09:23:53.118Z,13.90
2019-05-13T09:24:53.222Z,13.85
2019-05-13T09:25:53.127Z,13.90
2019-05-13T09:26:53.115Z,13.75
2019-05-13T09:27:53.103Z,13.60
2019-05-13T09:28:53.114Z,13.35
2019-05-13T09:29:53.092Z,13.13
2019-05-13T09:30:53.453Z,13.00
2019-05-13T09:31:53.294Z,12.90
2019-05-13T09:32:53.095Z,12.82
2019-05-13T09:33:53.067Z,12.62
2019-05-13T09:34:53.069Z,12.45
2019-05-13T09:35:53.796Z,12.21
2019-05-13T09:36:53.054Z,12.15
2019-05-13T09:37:53.063Z,12.13
2019-05-13T09:38:53.051Z,12.17
2019-05-13T09:39:53.063Z,12.24
2019-05-13T09:40:53.479Z,12.25
2019-05-13T09:41:53.041Z,12.49
2019-05-13T09:42:55.380Z,12.55
2019-05-13T09:43:53.250Z,12.64
2019-05-13T09:44:53.029Z,12.65
2019-05-13T09:45:53.233Z,12.64
2019-05-13T09:46:53.012Z,12.64
2019-05-13T09:47:53.012Z,12.65
2019-05-13T09:48:53.025Z,12.64
2019-05-13T09:49:54.556Z,12.70
2019-05-13T09:50:53.019Z,12.65
2019-05-13T09:51:52.994Z,12.61
2019-05-13T09:52:52.990Z,12.64
2019-05-13T09:53:52.980Z,12.64
2019-05-13T09:54:52.990Z,12.50
2019-05-13T09:55:52.982Z,12.54
2019-05-13T09:56:53.369Z,12.65
2019-05-13T09:57:52.965Z,12.68
2019-05-13T09:58:52.958Z,12.64
2019-05-13T09:59:52.972Z,12.70
2019-05-13T10:00:53.348Z,12.62
2019-05-13T10:01:52.949Z,12.62
2019-05-13T10:02:53.015Z,12.85
2019-05-13T10:03:57.671Z,12.97
2019-05-13T10:04:53.150Z,13.03
2019-05-13T10:05:52.967Z,12.86
2019-05-13T10:06:52.929Z,12.94
2019-05-13T10:07:52.925Z,12.87
2019-05-13T10:08:52.945Z,12.80
2019-05-13T10:09:52.922Z,12.91
2019-05-13T10:10:53.104Z,12.82
2019-05-13T10:11:52.925Z,12.83
2019-05-13T10:13:07.903Z,12.65
2019-05-13T10:13:52.894Z,12.72
2019-05-13T10:14:52.903Z,12.80
2019-05-13T10:15:52.891Z,12.78
2019-05-13T10:16:52.897Z,12.65
2019-05-13T10:17:52.941Z,12.64
2019-05-13T10:18:52.897Z,12.65
2019-05-13T10:19:52.866Z,12.67
2019-05-13T10:20:57.662Z,12.65
2019-05-13T10:21:52.873Z,12.67
2019-05-13T10:22:52.925Z,12.85
2019-05-13T10:23:52.867Z,12.86
2019-05-13T10:24:52.849Z,12.86
2019-05-13T10:25:52.845Z,12.87
2019-05-13T10:26:52.852Z,12.75
2019-05-13T10:27:53.041Z,12.65
2019-05-13T10:28:52.830Z,12.64
2019-05-13T10:29:52.837Z,12.78
2019-05-13T10:30:53.346Z,12.67
2019-05-13T10:31:52.821Z,12.78
2019-05-13T10:32:52.954Z,12.72
2019-05-13T10:33:52.807Z,12.70
2019-05-13T10:34:52.821Z,12.87
2019-05-13T10:35:52.820Z,12.73
2019-05-13T10:36:52.804Z,12.73
2019-05-13T10:37:52.789Z,12.78
2019-05-13T10:38:52.783Z,12.75
2019-05-13T10:39:52.787Z,12.62
2019-05-13T10:40:52.973Z,12.65
2019-05-13T10:41:52.828Z,12.68
2019-05-13T10:42:52.767Z,12.78
2019-05-13T10:43:52.772Z,12.80
2019-05-13T10:44:52.755Z,12.76
2019-05-13T10:45:52.749Z,12.90
2019-05-13T10:46:52.751Z,12.93
2019-05-13T10:47:52.738Z,12.98
2019-05-13T10:48:52.979Z,13.01
2019-05-13T10:49:52.746Z,13.01
2019-05-13T10:50:53.175Z,12.97
2019-05-13T10:51:52.880Z,12.97
2019-05-13T10:52:52.747Z,13.01
2019-05-13T10:54:52.942Z,12.95
2019-05-13T10:55:52.706Z,12.97
2019-05-13T10:56:59.024Z,12.87
2019-05-13T10:57:52.714Z,12.83
2019-05-13T10:58:53.386Z,12.80
2019-05-13T10:59:52.914Z,12.98
2019-05-13T11:00:52.693Z,12.94
2019-05-13T11:01:52.699Z,12.82
2019-05-13T11:02:52.673Z,12.97
2019-05-13T11:03:52.702Z,12.98
2019-05-13T11:04:52.841Z,13.15
2019-05-13T11:05:52.992Z,13.22
2019-05-13T11:06:52.877Z,13.31
2019-05-13T11:07:52.663Z,13.39
2019-05-13T11:08:53.811Z,13.50
2019-05-13T11:09:53.003Z,13.42
2019-05-13T11:10:53.264Z,13.39
2019-05-13T11:11:53.118Z,13.22
2019-05-13T11:12:52.634Z,13.08
2019-05-13T11:13:59.203Z,13.11
2019-05-13T11:14:55.156Z,13.25
2019-05-13T11:15:57.802Z,13.28
2019-05-13T11:16:52.692Z,13.50
2019-05-13T11:17:52.616Z,13.65
2019-05-13T11:18:52.613Z,13.81
2019-05-13T11:19:52.626Z,13.79
2019-05-13T11:20:52.617Z,13.90
2019-05-13T11:21:52.599Z,13.81
2019-05-13T11:22:52.599Z,13.77
2019-05-13T11:23:52.599Z,13.77
2019-05-13T11:24:52.608Z,13.78
2019-05-13T11:25:52.671Z,13.62
2019-05-13T11:26:53.350Z,13.56
2019-05-13T11:27:57.663Z,13.54
2019-05-13T11:28:52.575Z,13.46
2019-05-13T11:29:52.604Z,13.38
2019-05-13T11:30:52.560Z,13.37
2019-05-13T11:31:53.092Z,13.44
2019-05-13T11:32:52.753Z,13.59
2019-05-13T11:33:52.559Z,13.60
2019-05-13T11:34:53.219Z,13.56
2019-05-13T11:35:52.595Z,13.50
2019-05-13T11:36:53.572Z,13.57
2019-05-13T11:37:52.530Z,13.53
2019-05-13T11:38:53.319Z,13.46
2019-05-13T11:39:52.544Z,13.47
2019-05-13T11:40:52.730Z,13.52
2019-05-13T11:41:52.534Z,13.53
2019-05-13T11:44:09.221Z,13.65
2019-05-13T11:44:52.897Z,13.62
2019-05-13T11:45:52.493Z,13.53
2019-05-13T11:46:53.271Z,13.60
2019-05-13T11:47:52.485Z,13.65
2019-05-13T11:48:52.619Z,13.78
2019-05-13T11:49:52.567Z,13.72
2019-05-13T11:50:54.175Z,13.78
2019-05-13T11:51:52.483Z,13.90
2019-05-13T11:52:52.740Z,13.93
2019-05-13T11:53:53.074Z,13.95
2019-05-13T11:54:53.909Z,13.79
2019-05-13T11:55:52.517Z,13.62
2019-05-13T11:57:01.776Z,13.81
2019-05-13T11:57:53.305Z,13.89
2019-05-13T11:58:53.443Z,13.86
2019-05-13T11:59:52.853Z,13.77
2019-05-13T12:00:53.355Z,13.79
2019-05-13T12:01:53.850Z,13.81
2019-05-13T12:02:54.669Z,13.78
2019-05-13T12:03:53.388Z,13.79
2019-05-13T12:04:53.435Z,13.77
2019-05-13T12:05:53.829Z,13.83
2019-05-13T12:06:54.647Z,13.59
2019-05-13T12:07:53.495Z,13.67
2019-05-13T12:08:55.217Z,13.59
2019-05-13T12:09:52.511Z,13.54
2019-05-13T12:10:52.466Z,13.50
2019-05-13T12:11:52.448Z,13.63
2019-05-13T12:12:52.392Z,13.63
2019-05-13T12:13:53.012Z,13.68
2019-05-13T12:15:20.257Z,13.63
2019-05-13T12:15:54.350Z,13.65
2019-05-13T12:16:52.374Z,13.59
2019-05-13T12:17:53.008Z,13.79
2019-05-13T12:18:52.901Z,13.78
2019-05-13T12:19:54.189Z,13.77
2019-05-13T12:21:54.085Z,13.67
2019-05-13T12:22:52.357Z,13.62
2019-05-13T12:23:52.947Z,13.75
2019-05-13T12:24:52.344Z,13.92
2019-05-13T12:25:53.163Z,14.00
2019-05-13T12:26:53.141Z,14.04
2019-05-13T12:27:52.356Z,14.05
2019-05-13T12:28:53.659Z,13.95
2019-05-13T12:29:53.046Z,13.87
2019-05-13T12:30:53.200Z,13.92
2019-05-13T12:31:52.793Z,13.90
2019-05-13T12:32:52.382Z,13.86
2019-05-13T12:33:52.712Z,13.87
2019-05-13T12:34:52.880Z,13.89
2019-05-13T12:35:53.267Z,13.86
2019-05-13T12:36:52.294Z,13.90
2019-05-13T12:37:53.382Z,13.90
2019-05-13T12:38:53.862Z,13.89
2019-05-13T12:39:53.411Z,13.92
2019-05-13T12:40:53.050Z,13.90
2019-05-13T12:41:53.726Z,13.86
2019-05-13T12:42:53.886Z,14.11
2019-05-13T12:43:53.893Z,14.03
2019-05-13T12:45:08.228Z,14.04
2019-05-13T12:45:53.332Z,14.03
2019-05-13T12:46:54.220Z,14.04
2019-05-13T12:47:53.092Z,14.10
2019-05-13T12:48:52.257Z,14.04
2019-05-13T12:49:52.254Z,14.03
2019-05-13T12:50:53.900Z,13.93
2019-05-13T12:52:00.164Z,13.97
2019-05-13T12:52:52.258Z,14.04
2019-05-13T12:53:52.914Z,14.07
2019-05-13T12:54:53.044Z,14.03
2019-05-13T12:55:56.906Z,14.04
2019-05-13T12:56:52.647Z,14.00
2019-05-13T12:57:52.782Z,13.90
2019-05-13T12:58:52.412Z,13.93
2019-05-13T12:59:52.218Z,13.87
2019-05-13T13:00:53.365Z,13.97
2019-05-13T13:01:52.895Z,14.03
2019-05-13T13:02:52.222Z,14.14
2019-05-13T13:03:52.194Z,14.25
2019-05-13T13:05:09.278Z,14.29
2019-05-13T13:05:52.203Z,14.48
2019-05-13T13:06:53.186Z,14.35
2019-05-13T13:08:15.936Z,14.18
2019-05-13T13:08:52.186Z,14.32
2019-05-13T13:09:53.650Z,14.23
2019-05-13T13:10:53.323Z,14.28
2019-05-13T13:11:54.385Z,14.33